createdAt,value
2022-11-24T00:01:29.534Z,101241.34
2022-11-24T00:04:00.051Z,101247.61
2022-11-24T00:06:30.041Z,101250.65
2022-11-24T00:08:58.873Z,101250.35
2022-11-24T00:11:33.290Z,101242.94
2022-11-24T00:14:02.276Z,101244.64
2022-11-24T00:16:33.733Z,101244.09
2022-11-24T00:19:05.059Z,101245.27
2022-11-24T00:21:33.365Z,101245.27
2022-11-24T00:24:02.256Z,101244.15
2022-11-24T00:26:32.698Z,101253.25
2022-11-24T00:29:03.522Z,101258.02
2022-11-24T00:31:36.942Z,101254.45
2022-11-24T00:34:12.242Z,101252.61
2022-11-24T00:36:44.533Z,101248.33
2022-11-24T00:39:14.974Z,101256.45
2022-11-24T00:41:43.346Z,101260.41
2022-11-24T00:44:11.544Z,101256.04
2022-11-24T00:46:40.567Z,101260.77
2022-11-24T00:49:09.516Z,101260.71
2022-11-24T00:51:37.696Z,101261.59
2022-11-24T00:54:05.936Z,101264.10
2022-11-24T00:56:34.051Z,101268.30
2022-11-24T00:59:02.236Z,101273.15
2022-11-24T01:01:31.273Z,101272.55
2022-11-24T01:04:00.650Z,101271.25
2022-11-24T01:06:29.819Z,101261.27
2022-11-24T01:08:58.527Z,101262.23
2022-11-24T01:11:29.708Z,101265.12
2022-11-24T01:13:59.697Z,101265.75
2022-11-24T01:16:35.347Z,101264.88
2022-11-24T01:19:03.519Z,101264.95
2022-11-24T01:21:31.719Z,101262.76
2022-11-24T01:24:00.286Z,101269.91
2022-11-24T01:26:28.258Z,101280.22
2022-11-24T01:28:57.676Z,101284.31
2022-11-24T01:31:26.908Z,101286.71
2022-11-24T01:33:55.564Z,101292.04
2022-11-24T01:36:24.148Z,101299.92
2022-11-24T01:38:52.329Z,101300.83
2022-11-24T01:41:25.712Z,101302.88
2022-11-24T01:43:55.347Z,101302.42
2022-11-24T01:46:33.895Z,101305.38
2022-11-24T01:49:21.977Z,101309.36
2022-11-24T01:51:53.227Z,101304.27
2022-11-24T01:54:26.011Z,101308.55
2022-11-24T01:57:00.737Z,101316.98
2022-11-24T01:59:29.272Z,101320.64
2022-11-24T02:01:57.851Z,101317.58
2022-11-24T02:04:30.909Z,101317.81
2022-11-24T02:07:02.077Z,101318.03
2022-11-24T02:09:39.445Z,101322.07
2022-11-24T02:12:09.252Z,101332.36
2022-11-24T02:14:39.169Z,101337.91
2022-11-24T02:17:07.754Z,101335.96
2022-11-24T02:19:46.883Z,101336.05
2022-11-24T02:22:40.237Z,101335.66
2022-11-24T02:25:36.250Z,101344.40
2022-11-24T02:28:08.763Z,101342.52
2022-11-24T02:30:37.517Z,101343.73
2022-11-24T02:33:05.899Z,101341.49
2022-11-24T02:35:34.696Z,101346.76
2022-11-24T02:38:02.979Z,101345.23
2022-11-24T02:40:31.664Z,101348.45
2022-11-24T02:43:13.725Z,101341.65
2022-11-24T02:45:41.940Z,101346.86
2022-11-24T02:48:10.117Z,101342.39
2022-11-24T02:50:38.300Z,101345.20
2022-11-24T02:53:06.473Z,101344.50
2022-11-24T02:55:34.649Z,101353.02
2022-11-24T02:58:03.341Z,101356.59
2022-11-24T03:00:31.621Z,101359.89
2022-11-24T03:02:59.719Z,101359.93
2022-11-24T03:05:28.386Z,101360.55
2022-11-24T03:07:56.617Z,101357.16
2022-11-24T03:10:25.050Z,101357.26
2022-11-24T03:12:54.376Z,101349.80
2022-11-24T03:15:23.657Z,101356.37
2022-11-24T03:17:54.997Z,101354.66
2022-11-24T03:20:23.496Z,101355.90
2022-11-24T03:22:51.983Z,101356.42
2022-11-24T03:25:20.569Z,101354.10
2022-11-24T03:27:49.667Z,101360.55
2022-11-24T03:30:17.947Z,101360.14
2022-11-24T03:32:46.645Z,101358.18
2022-11-24T03:35:14.816Z,101358.18
2022-11-24T03:37:42.892Z,101362.48
2022-11-24T03:40:11.582Z,101361.48
2022-11-24T03:42:40.688Z,101359.56
2022-11-24T03:45:38.004Z,101362.40
2022-11-24T03:47:57.301Z,101365.59
2022-11-24T03:50:25.588Z,101365.42
2022-11-24T03:52:54.022Z,101365.14
2022-11-24T03:55:22.251Z,101371.89
2022-11-24T03:57:50.526Z,101369.05
2022-11-24T04:00:18.604Z,101369.59
2022-11-24T04:02:46.797Z,101367.57
2022-11-24T04:05:15.470Z,101366.02
2022-11-24T04:07:43.617Z,101365.43
2022-11-24T04:10:12.340Z,101364.88
2022-11-24T04:12:40.517Z,101367.89
2022-11-24T04:15:09.004Z,101364.84
2022-11-24T04:17:37.181Z,101366.21
2022-11-24T04:20:06.282Z,101373.14
2022-11-24T04:22:34.253Z,101376.05
2022-11-24T04:25:03.659Z,101372.83
2022-11-24T04:27:36.348Z,101371.59
2022-11-24T04:30:06.386Z,101372.41
2022-11-24T04:32:35.056Z,101374.18
2022-11-24T04:35:04.285Z,101377.52
2022-11-24T04:37:33.045Z,101385.55
2022-11-24T04:40:01.129Z,101383.48
2022-11-24T04:42:29.301Z,101388.13
2022-11-24T04:44:57.477Z,101394.25
2022-11-24T04:47:27.221Z,101392.10
2022-11-24T04:49:55.471Z,101386.23
2022-11-24T04:52:24.908Z,101385.84
2022-11-24T04:54:53.182Z,101382.76
2022-11-24T04:57:27.413Z,101382.88
2022-11-24T04:59:55.554Z,101381.05
2022-11-24T05:02:23.938Z,101384.09
2022-11-24T05:04:52.713Z,101389.80
2022-11-24T05:07:20.864Z,101391.42
2022-11-24T05:09:59.396Z,101393.12
2022-11-24T05:12:28.520Z,101394.36
2022-11-24T05:15:00.067Z,101399.98
2022-11-24T05:17:39.203Z,101398.90
2022-11-24T05:20:08.199Z,101403.88
2022-11-24T05:22:36.276Z,101408.51
2022-11-24T05:25:05.069Z,101408.83
2022-11-24T05:27:33.352Z,101411.02
2022-11-24T05:30:01.526Z,101412.30
2022-11-24T05:32:29.997Z,101412.95
2022-11-24T05:34:58.399Z,101411.39
2022-11-24T05:37:29.238Z,101420.13
2022-11-24T05:39:57.724Z,101409.27
2022-11-24T05:42:25.932Z,101413.38
2022-11-24T05:44:54.200Z,101417.95
2022-11-24T05:47:23.175Z,101416.36
2022-11-24T05:49:51.362Z,101418.42
2022-11-24T05:52:19.739Z,101424.95
2022-11-24T05:54:48.325Z,101429.33
2022-11-24T05:57:19.507Z,101433.02
2022-11-24T05:59:48.060Z,101432.17
2022-11-24T06:02:16.330Z,101439.39
2022-11-24T06:04:44.829Z,101439.48
2022-11-24T06:07:13.868Z,101441.02
2022-11-24T06:09:42.419Z,101439.30
2022-11-24T06:12:12.024Z,101441.16
2022-11-24T06:14:40.742Z,101443.27
2022-11-24T06:17:10.687Z,101443.56
2022-11-24T06:19:42.035Z,101443.17
2022-11-24T06:22:10.879Z,101443.17
2022-11-24T06:24:39.059Z,101445.48
2022-11-24T06:27:07.233Z,101441.42
2022-11-24T06:29:35.309Z,101438.16
2022-11-24T06:32:04.277Z,101440.95
2022-11-24T06:34:32.767Z,101448.48
2022-11-24T06:37:01.790Z,101442.89
2022-11-24T06:39:30.175Z,101438.93
2022-11-24T06:41:59.071Z,101442.52
2022-11-24T06:44:27.569Z,101441.48
2022-11-24T06:46:56.144Z,101440.38
2022-11-24T06:49:24.534Z,101441.17
2022-11-24T06:51:55.097Z,101444.97
2022-11-24T06:54:23.332Z,101442.98
2022-11-24T06:56:56.865Z,101447.70
2022-11-24T06:59:25.614Z,101446.13
2022-11-24T07:01:54.211Z,101446.32
2022-11-24T07:04:22.800Z,101451.46
2022-11-24T07:06:50.976Z,101451.21
2022-11-24T07:09:19.360Z,101452.94
2022-11-24T07:11:47.947Z,101451.21
2022-11-24T07:14:16.033Z,101458.17
2022-11-24T07:16:44.251Z,101458.60
2022-11-24T07:19:12.585Z,101465.31
2022-11-24T07:21:40.766Z,101465.48
2022-11-24T07:24:10.377Z,101469.02
2022-11-24T07:26:38.758Z,101473.08
2022-11-24T07:29:06.935Z,101476.18
2022-11-24T07:31:35.295Z,101472.64
2022-11-24T07:34:03.810Z,101471.63
2022-11-24T07:36:31.886Z,101471.14
2022-11-24T07:39:00.279Z,101471.62
2022-11-24T07:41:28.529Z,101474.66
2022-11-24T07:43:56.723Z,101473.31
2022-11-24T07:46:25.477Z,101474.05
2022-11-24T07:48:53.992Z,101472.91
2022-11-24T07:51:22.078Z,101470.50
2022-11-24T07:53:50.258Z,101474.56
2022-11-24T07:56:18.534Z,101471.88
2022-11-24T07:58:52.517Z,101477.13
2022-11-24T08:01:21.320Z,101480.71
2022-11-24T08:03:49.978Z,101483.83
2022-11-24T08:06:29.041Z,101481.94
2022-11-24T08:09:00.748Z,101482.28
2022-11-24T08:11:29.111Z,101480.84
2022-11-24T08:13:58.620Z,101477.41
2022-11-24T08:16:27.249Z,101477.93
2022-11-24T08:18:56.400Z,101477.59
2022-11-24T08:21:25.400Z,101475.50
2022-11-24T08:23:57.667Z,101475.21
2022-11-24T08:26:26.557Z,101482.30
2022-11-24T08:28:57.705Z,101485.52
2022-11-24T08:31:27.921Z,101486.34
2022-11-24T08:33:56.254Z,101488.60
2022-11-24T08:36:24.497Z,101494.33
2022-11-24T08:38:57.785Z,101490.73
2022-11-24T08:41:27.088Z,101493.91
2022-11-24T08:43:56.082Z,101493.55
2022-11-24T08:46:25.161Z,101501.70
2022-11-24T08:48:55.520Z,101506.01
2022-11-24T08:51:26.422Z,101508.16
2022-11-24T08:54:00.018Z,101508.97
2022-11-24T08:56:30.585Z,101509.16
2022-11-24T08:58:59.923Z,101506.83
2022-11-24T09:01:28.895Z,101508.41
2022-11-24T09:03:57.873Z,101510.11
2022-11-24T09:06:28.826Z,101512.22
2022-11-24T09:08:57.999Z,101514.64
2022-11-24T09:11:26.934Z,101519.55
2022-11-24T09:13:56.061Z,101517.67
2022-11-24T09:16:27.926Z,101518.72
2022-11-24T09:19:01.484Z,101518.09
2022-11-24T09:21:32.020Z,101522.36
2022-11-24T09:24:00.503Z,101527.13
2022-11-24T09:26:31.161Z,101532.48
2022-11-24T09:29:00.443Z,101534.09
2022-11-24T09:31:32.333Z,101533.36
2022-11-24T09:34:02.034Z,101529.55
2022-11-24T09:36:30.300Z,101529.27
2022-11-24T09:38:59.302Z,101529.39
2022-11-24T09:41:54.594Z,101527.09
2022-11-24T09:44:57.565Z,101530.09
2022-11-24T09:47:44.470Z,101535.07
2022-11-24T09:50:37.434Z,101524.73
2022-11-24T09:53:24.129Z,101526.23
2022-11-24T09:55:56.497Z,101525.55
2022-11-24T09:58:40.461Z,101523.13
2022-11-24T10:01:14.452Z,101522.05
2022-11-24T10:03:45.242Z,101524.27
2022-11-24T10:06:22.725Z,101524.20
2022-11-24T10:09:06.207Z,101521.83
2022-11-24T10:11:44.811Z,101521.91
2022-11-24T10:14:42.456Z,101520.61
2022-11-24T10:17:16.783Z,101520.63
2022-11-24T10:19:51.605Z,101522.08
2022-11-24T10:22:38.820Z,101517.30
2022-11-24T10:25:19.074Z,101518.52
2022-11-24T10:28:03.009Z,101519.84
2022-11-24T10:30:31.715Z,101521.89
2022-11-24T10:33:20.769Z,101517.52
2022-11-24T10:36:06.652Z,101517.89
2022-11-24T10:39:03.777Z,101508.73
2022-11-24T10:41:57.026Z,101507.44
2022-11-24T10:44:25.859Z,101505.31
2022-11-24T10:46:54.259Z,101503.23
2022-11-24T10:49:27.573Z,101505.73
2022-11-24T10:52:16.707Z,101501.71
2022-11-24T10:54:59.845Z,101501.48
2022-11-24T10:57:36.723Z,101497.66
2022-11-24T11:00:24.788Z,101494.26
2022-11-24T11:03:12.649Z,101484.00
2022-11-24T11:05:44.978Z,101481.91
2022-11-24T11:08:32.295Z,101478.22
2022-11-24T11:11:12.754Z,101474.95
2022-11-24T11:13:48.607Z,101477.55
2022-11-24T11:16:26.998Z,101473.92
2022-11-24T11:18:55.298Z,101470.45
2022-11-24T11:21:34.221Z,101469.38
2022-11-24T11:24:22.150Z,101470.30
2022-11-24T11:27:00.462Z,101469.77
2022-11-24T11:35:14.138Z,101455.68
2022-11-24T11:37:44.443Z,101452.74
2022-11-24T11:40:17.841Z,101447.74
2022-11-24T11:43:08.058Z,101440.77
2022-11-24T11:45:41.763Z,101434.52
2022-11-24T11:48:40.657Z,101436.04
2022-11-24T11:51:30.283Z,101433.55
2022-11-24T11:54:08.126Z,101427.81
2022-11-24T11:56:43.419Z,101415.16
2022-11-24T11:59:24.072Z,101410.67
2022-11-24T12:02:22.013Z,101414.13
2022-11-24T12:05:25.003Z,101407.98
2022-11-24T12:08:20.695Z,101400.50
2022-11-24T12:10:55.330Z,101395.37
2022-11-24T12:13:43.291Z,101395.52
2022-11-24T12:16:39.685Z,101386.83
2022-11-24T12:19:14.109Z,101385.40
2022-11-24T12:21:55.303Z,101380.61
2022-11-24T12:24:40.885Z,101381.22
2022-11-24T12:27:24.277Z,101381.46
2022-11-24T12:29:58.408Z,101373.65
2022-11-24T12:32:45.502Z,101370.48
2022-11-24T12:35:26.572Z,101366.85
2022-11-24T12:38:40.425Z,101375.44
2022-11-24T12:44:36.015Z,101368.38
2022-11-24T12:47:17.584Z,101360.70
2022-11-24T12:50:02.381Z,101360.39
2022-11-24T12:52:38.297Z,101352.94
2022-11-24T12:55:16.475Z,101347.55
2022-11-24T12:58:09.316Z,101335.55
2022-11-24T13:00:55.430Z,101338.19
2022-11-24T13:03:58.093Z,101333.61
2022-11-24T13:06:49.423Z,101329.02
2022-11-24T13:09:18.280Z,101325.31
2022-11-24T13:11:50.499Z,101324.31
2022-11-24T13:14:21.305Z,101321.87
2022-11-24T13:17:29.044Z,101319.89
2022-11-24T13:19:48.770Z,101317.73
2022-11-24T13:22:24.622Z,101314.34
2022-11-24T13:25:16.543Z,101312.86
2022-11-24T13:27:48.246Z,101316.25
2022-11-24T13:30:53.719Z,101308.53
2022-11-24T13:33:33.050Z,101306.94
2022-11-24T13:36:04.413Z,101300.44
2022-11-24T13:38:52.205Z,101298.52
2022-11-24T13:41:32.389Z,101294.48
2022-11-24T13:44:16.245Z,101291.45
2022-11-24T13:47:31.684Z,101289.34
2022-11-24T13:50:01.433Z,101287.89
2022-11-24T13:52:39.091Z,101286.04
2022-11-24T13:55:13.931Z,101285.33
2022-11-24T13:58:14.130Z,101285.28
2022-11-24T14:01:02.979Z,101282.70
2022-11-24T14:04:32.915Z,101283.77
2022-11-24T14:07:09.180Z,101285.02
2022-11-24T14:09:42.628Z,101284.56
2022-11-24T14:12:18.174Z,101279.69
2022-11-24T14:14:48.782Z,101284.49
2022-11-24T14:17:27.975Z,101284.23
2022-11-24T14:19:58.291Z,101278.95
2022-11-24T14:22:39.172Z,101285.05
2022-11-24T14:25:23.169Z,101284.53
2022-11-24T14:27:51.849Z,101279.48
2022-11-24T14:30:23.115Z,101283.13
2022-11-24T14:32:59.951Z,101279.77
2022-11-24T14:35:35.250Z,101278.36
2022-11-24T14:38:05.912Z,101276.34
2022-11-24T14:40:46.143Z,101271.36
2022-11-24T14:43:23.397Z,101271.53
2022-11-24T14:45:58.396Z,101276.26
2022-11-24T14:48:29.854Z,101271.20
2022-11-24T14:51:23.241Z,101270.10
2022-11-24T14:53:54.559Z,101273.67
2022-11-24T14:56:35.007Z,101273.10
2022-11-24T14:59:05.071Z,101272.53
2022-11-24T15:01:34.923Z,101272.54
2022-11-24T15:04:26.936Z,101272.47
2022-11-24T15:07:12.371Z,101270.09
2022-11-24T15:09:52.548Z,101263.16
2022-11-24T15:12:39.209Z,101267.05
2022-11-24T15:15:23.268Z,101265.78
2022-11-24T15:17:57.433Z,101267.48
2022-11-24T15:20:40.300Z,101267.73
2022-11-24T15:23:20.782Z,101268.74
2022-11-24T15:25:51.116Z,101269.20
2022-11-24T15:28:19.368Z,101272.05
2022-11-24T15:30:47.448Z,101272.36
2022-11-24T15:33:19.920Z,101275.96
2022-11-24T15:35:48.300Z,101272.31
2022-11-24T15:38:16.785Z,101271.95
2022-11-24T15:40:47.744Z,101267.15
2022-11-24T15:43:22.162Z,101264.39
2022-11-24T15:45:50.332Z,101265.34
2022-11-24T15:48:18.680Z,101267.55
2022-11-24T15:50:48.428Z,101266.50
2022-11-24T15:53:21.826Z,101265.36
2022-11-24T15:55:50.619Z,101268.45
2022-11-24T15:58:18.907Z,101270.48
2022-11-24T16:00:47.348Z,101275.88
2022-11-24T16:03:45.883Z,101271.64
2022-11-24T16:06:03.896Z,101272.02
2022-11-24T16:08:32.276Z,101273.23
2022-11-24T16:11:00.457Z,101273.45
2022-11-24T16:13:28.622Z,101278.40
2022-11-24T16:15:57.026Z,101276.38
2022-11-24T16:18:25.297Z,101273.40
2022-11-24T16:20:53.695Z,101274.00
2022-11-24T16:23:21.968Z,101277.20
2022-11-24T16:25:50.141Z,101279.41
2022-11-24T16:28:18.424Z,101281.67
2022-11-24T16:30:50.632Z,101281.64
2022-11-24T16:33:18.870Z,101284.91
2022-11-24T16:35:48.177Z,101285.14
2022-11-24T16:38:17.711Z,101280.80
2022-11-24T16:40:51.800Z,101279.79
2022-11-24T16:43:20.324Z,101278.67
2022-11-24T16:46:03.643Z,101275.10
2022-11-24T16:48:36.290Z,101278.89
2022-11-24T16:51:09.369Z,101278.98
2022-11-24T16:53:38.476Z,101278.60
2022-11-24T16:56:07.474Z,101285.14
2022-11-24T16:58:40.865Z,101286.02
2022-11-24T17:01:12.690Z,101282.70
2022-11-24T17:03:41.639Z,101285.05
2022-11-24T17:06:13.808Z,101285.60
2022-11-24T17:08:43.605Z,101288.28
2022-11-24T17:11:13.651Z,101288.36
2022-11-24T17:13:43.221Z,101291.43
2022-11-24T17:16:16.134Z,101292.95
2022-11-24T17:18:45.023Z,101289.48
2022-11-24T17:21:15.874Z,101295.20
2022-11-24T17:23:44.358Z,101295.85
2022-11-24T17:26:14.744Z,101290.46
2022-11-24T17:28:43.877Z,101292.23
2022-11-24T17:31:23.938Z,101289.48
2022-11-24T17:33:55.036Z,101286.67
2022-11-24T17:36:23.664Z,101291.58
2022-11-24T17:38:52.149Z,101289.98
2022-11-24T17:41:21.549Z,101293.52
2022-11-24T17:43:55.113Z,101291.59
2022-11-24T17:46:24.312Z,101287.96
2022-11-24T17:48:52.639Z,101289.25
2022-11-24T17:51:23.580Z,101288.67
2022-11-24T17:53:53.708Z,101295.37
2022-11-24T17:56:24.476Z,101295.78
2022-11-24T17:59:00.498Z,101296.02
2022-11-24T18:01:29.358Z,101297.94
2022-11-24T18:03:58.794Z,101297.84
2022-11-24T18:06:27.500Z,101300.77
2022-11-24T18:08:57.508Z,101303.17
2022-11-24T18:11:31.756Z,101303.66
2022-11-24T18:14:03.375Z,101309.92
2022-11-24T18:16:34.449Z,101312.84
2022-11-24T18:19:09.329Z,101313.48
2022-11-24T18:21:41.931Z,101313.80
2022-11-24T18:24:11.841Z,101315.42
2022-11-24T18:26:41.513Z,101316.54
2022-11-24T18:29:11.175Z,101322.48
2022-11-24T18:31:39.842Z,101325.15
2022-11-24T18:34:08.354Z,101323.52
2022-11-24T18:36:37.282Z,101319.84
2022-11-24T18:39:07.684Z,101326.21
2022-11-24T18:41:36.774Z,101325.80
2022-11-24T18:44:04.826Z,101333.55
2022-11-24T18:46:33.234Z,101334.77
2022-11-24T18:49:01.678Z,101337.42
2022-11-24T18:51:30.308Z,101336.78
2022-11-24T18:53:58.590Z,101341.38
2022-11-24T18:56:27.209Z,101340.95
2022-11-24T18:58:58.744Z,101345.23
2022-11-24T19:01:29.075Z,101345.98
2022-11-24T19:03:59.262Z,101349.34
2022-11-24T19:06:33.597Z,101351.83
2022-11-24T19:09:08.336Z,101353.77
2022-11-24T19:11:39.062Z,101356.17
2022-11-24T19:14:09.502Z,101357.30
2022-11-24T19:16:37.760Z,101357.52
2022-11-24T19:19:05.957Z,101360.63
2022-11-24T19:21:36.387Z,101361.75
2022-11-24T19:24:06.076Z,101355.38
2022-11-24T19:26:34.692Z,101354.19
2022-11-24T19:29:04.813Z,101355.62
2022-11-24T19:31:34.111Z,101354.55
2022-11-24T19:34:02.998Z,101354.63
2022-11-24T19:36:32.342Z,101351.70
2022-11-24T19:39:00.460Z,101349.83
2022-11-24T19:41:31.024Z,101354.33
2022-11-24T19:44:00.122Z,101354.84
2022-11-24T19:46:29.840Z,101350.89
2022-11-24T19:49:02.409Z,101351.30
2022-11-24T19:51:33.169Z,101352.58
2022-11-24T19:54:03.379Z,101350.31
2022-11-24T19:56:34.158Z,101348.92
2022-11-24T19:59:04.540Z,101346.72
2022-11-24T20:01:35.594Z,101345.89
2022-11-24T20:04:08.899Z,101348.20
2022-11-24T20:06:39.473Z,101342.56
2022-11-24T20:09:10.465Z,101337.61
2022-11-24T20:11:39.552Z,101341.84
2022-11-24T20:14:11.252Z,101349.98
2022-11-24T20:16:40.090Z,101353.89
2022-11-24T20:19:14.890Z,101356.31
2022-11-24T20:21:43.938Z,101359.08
2022-11-24T20:24:18.318Z,101361.19
2022-11-24T20:26:49.504Z,101356.58
2022-11-24T20:29:18.875Z,101355.68
2022-11-24T20:31:49.871Z,101358.21
2022-11-24T20:34:18.026Z,101361.99
2022-11-24T20:36:47.749Z,101361.33
2022-11-24T20:39:20.424Z,101356.73
2022-11-24T20:41:48.911Z,101356.17
2022-11-24T20:44:18.537Z,101358.98
2022-11-24T20:46:48.441Z,101358.39
2022-11-24T20:49:19.512Z,101361.05
2022-11-24T20:51:47.741Z,101361.89
2022-11-24T20:54:18.214Z,101359.06
2022-11-24T20:56:47.907Z,101364.75
2022-11-24T20:59:21.939Z,101365.59
2022-11-24T21:01:51.462Z,101368.02
2022-11-24T21:04:22.785Z,101366.95
2022-11-24T21:06:51.061Z,101367.83
2022-11-24T21:09:19.434Z,101366.10
2022-11-24T21:11:49.147Z,101371.23
2022-11-24T21:14:17.299Z,101369.02
2022-11-24T21:16:45.849Z,101374.98
2022-11-24T21:19:15.679Z,101379.45
2022-11-24T21:21:44.593Z,101384.30
2022-11-24T21:24:18.232Z,101383.98
2022-11-24T21:26:47.160Z,101386.75
2022-11-24T21:29:16.952Z,101388.01
2022-11-24T21:31:45.794Z,101388.64
2022-11-24T21:34:16.856Z,101391.86
2022-11-24T21:36:45.796Z,101395.20
2022-11-24T21:39:15.230Z,101396.23
2022-11-24T21:41:43.673Z,101388.52
2022-11-24T21:44:13.562Z,101387.61
2022-11-24T21:46:49.351Z,101389.59
2022-11-24T21:49:19.355Z,101390.52
2022-11-24T21:51:48.168Z,101389.67
2022-11-24T21:54:16.321Z,101393.45
2022-11-24T21:56:44.497Z,101397.78
2022-11-24T21:59:12.678Z,101401.56
2022-11-24T22:01:40.933Z,101404.77
2022-11-24T22:04:09.856Z,101408.98
2022-11-24T22:06:38.237Z,101410.25
2022-11-24T22:09:06.618Z,101411.98
2022-11-24T22:11:34.899Z,101415.42
2022-11-24T22:14:02.975Z,101415.26
2022-11-24T22:16:31.060Z,101418.80
2022-11-24T22:19:00.386Z,101417.90
2022-11-24T22:21:28.741Z,101417.42
2022-11-24T22:23:57.130Z,101420.02
2022-11-24T22:26:27.176Z,101422.33
2022-11-24T22:28:57.473Z,101423.55
2022-11-24T22:31:33.565Z,101416.59
2022-11-24T22:34:02.421Z,101417.41
2022-11-24T22:36:30.915Z,101413.95
2022-11-24T22:39:02.276Z,101415.33
2022-11-24T22:41:33.521Z,101417.44
2022-11-24T22:44:02.808Z,101414.34
2022-11-24T22:46:31.981Z,101409.99
2022-11-24T22:49:01.321Z,101412.48
2022-11-24T22:51:32.260Z,101418.68
2022-11-24T22:54:03.025Z,101424.88
2022-11-24T22:56:32.364Z,101423.53
2022-11-24T22:59:02.143Z,101424.90
2022-11-24T23:01:32.184Z,101424.80
2022-11-24T23:04:00.969Z,101421.98
2022-11-24T23:06:31.593Z,101421.48
2022-11-24T23:09:01.407Z,101416.46
2022-11-24T23:11:38.633Z,101413.98
2022-11-24T23:14:12.851Z,101414.45
2022-11-24T23:16:41.514Z,101416.79
2022-11-24T23:19:10.155Z,101416.19
2022-11-24T23:21:39.305Z,101415.45
2022-11-24T23:24:08.665Z,101411.99
2022-11-24T23:26:40.834Z,101414.38
2022-11-24T23:29:11.267Z,101414.14
2022-11-24T23:31:39.500Z,101406.19
2022-11-24T23:34:08.128Z,101410.77
2022-11-24T23:36:36.524Z,101408.10
2022-11-24T23:39:11.579Z,101402.44
2022-11-24T23:41:39.829Z,101399.85
2022-11-24T23:44:08.210Z,101396.02
2022-11-24T23:46:37.415Z,101397.80
2022-11-24T23:49:05.490Z,101396.77
2022-11-24T23:51:33.977Z,101395.71
2022-11-24T23:54:02.800Z,101393.86
2022-11-24T23:56:32.783Z,101392.19
2022-11-24T23:59:04.035Z,101395.73
